sensor_id;sensor_type;location;lat;lon;timestamp;temperature;humidity
56512;DHT22;42408;53.238;5.686;2023-06-19T00:01:17;21.10;99.90
56512;DHT22;42408;53.238;5.686;2023-06-19T00:03:42;21.10;99.90
56512;DHT22;42408;53.238;5.686;2023-06-19T00:06:08;21.10;99.90
56512;DHT22;42408;53.238;5.686;2023-06-19T00:08:34;21.10;99.90
56512;DHT22;42408;53.238;5.686;2023-06-19T00:11:00;21.10;99.90
56512;DHT22;42408;53.238;5.686;2023-06-19T00:13:26;21.10;99.90
56512;DHT22;42408;53.238;5.686;2023-06-19T00:15:52;21.10;99.90
56512;DHT22;42408;53.238;5.686;2023-06-19T00:18:17;21.10;99.90
56512;DHT22;42408;53.238;5.686;2023-06-19T00:20:45;21.10;99.90
56512;DHT22;42408;53.238;5.686;2023-06-19T00:23:11;21.10;99.90
56512;DHT22;42408;53.238;5.686;2023-06-19T00:25:40;21.00;99.90
56512;DHT22;42408;53.238;5.686;2023-06-19T00:28:05;21.10;99.90
56512;DHT22;42408;53.238;5.686;2023-06-19T00:30:37;21.10;99.90
56512;DHT22;42408;53.238;5.686;2023-06-19T00:33:02;21.10;99.90
56512;DHT22;42408;53.238;5.686;2023-06-19T00:35:28;21.10;99.90
56512;DHT22;42408;53.238;5.686;2023-06-19T00:37:54;21.10;99.90
56512;DHT22;42408;53.238;5.686;2023-06-19T00:40:29;21.10;99.90
56512;DHT22;42408;53.238;5.686;2023-06-19T00:42:55;21.10;99.90
56512;DHT22;42408;53.238;5.686;2023-06-19T00:45:21;21.00;99.90
56512;DHT22;42408;53.238;5.686;2023-06-19T00:47:46;21.00;99.90
56512;DHT22;42408;53.238;5.686;2023-06-19T00:50:12;21.00;99.90
56512;DHT22;42408;53.238;5.686;2023-06-19T00:52:37;21.00;99.90
56512;DHT22;42408;53.238;5.686;2023-06-19T00:55:03;21.00;99.90
56512;DHT22;42408;53.238;5.686;2023-06-19T00:57:30;21.00;99.90
56512;DHT22;42408;53.238;5.686;2023-06-19T00:59:55;21.10;99.90
56512;DHT22;42408;53.238;5.686;2023-06-19T01:02:22;21.10;99.90
56512;DHT22;42408;53.238;5.686;2023-06-19T01:04:49;21.10;99.90
56512;DHT22;42408;53.238;5.686;2023-06-19T01:07:15;21.00;99.90
56512;DHT22;42408;53.238;5.686;2023-06-19T01:09:50;21.00;99.90
56512;DHT22;42408;53.238;5.686;2023-06-19T01:12:18;21.10;99.90
56512;DHT22;42408;53.238;5.686;2023-06-19T01:14:54;21.00;99.90
56512;DHT22;42408;53.238;5.686;2023-06-19T01:17:22;21.00;99.90
56512;DHT22;42408;53.238;5.686;2023-06-19T01:19:48;21.00;99.90
56512;DHT22;42408;53.238;5.686;2023-06-19T01:24:51;21.00;99.90
56512;DHT22;42408;53.238;5.686;2023-06-19T01:27:16;21.00;99.90
56512;DHT22;42408;53.238;5.686;2023-06-19T01:29:42;21.00;99.90
56512;DHT22;42408;53.238;5.686;2023-06-19T01:32:10;21.00;99.90
56512;DHT22;42408;53.238;5.686;2023-06-19T01:34:37;21.00;99.90
56512;DHT22;42408;53.238;5.686;2023-06-19T01:37:03;21.10;99.90
56512;DHT22;42408;53.238;5.686;2023-06-19T01:39:30;21.10;99.90
56512;DHT22;42408;53.238;5.686;2023-06-19T01:41:57;21.10;99.90
56512;DHT22;42408;53.238;5.686;2023-06-19T01:44:23;21.20;99.90
56512;DHT22;42408;53.238;5.686;2023-06-19T01:46:49;21.20;99.90
56512;DHT22;42408;53.238;5.686;2023-06-19T01:49:15;21.20;99.90
56512;DHT22;42408;53.238;5.686;2023-06-19T01:51:41;21.20;99.90
56512;DHT22;42408;53.238;5.686;2023-06-19T01:54:06;21.20;99.90
56512;DHT22;42408;53.238;5.686;2023-06-19T01:56:32;21.20;99.90
56512;DHT22;42408;53.238;5.686;2023-06-19T01:58:57;21.20;99.90
56512;DHT22;42408;53.238;5.686;2023-06-19T02:01:23;21.20;99.90
56512;DHT22;42408;53.238;5.686;2023-06-19T02:03:49;21.20;99.90
56512;DHT22;42408;53.238;5.686;2023-06-19T02:06:14;21.20;99.90
56512;DHT22;42408;53.238;5.686;2023-06-19T02:08:40;21.30;99.90
56512;DHT22;42408;53.238;5.686;2023-06-19T02:11:05;21.30;99.90
56512;DHT22;42408;53.238;5.686;2023-06-19T02:13:31;21.30;99.90
56512;DHT22;42408;53.238;5.686;2023-06-19T02:15:56;21.30;99.90
56512;DHT22;42408;53.238;5.686;2023-06-19T02:18:22;21.40;99.90
56512;DHT22;42408;53.238;5.686;2023-06-19T02:20:47;21.40;99.90
56512;DHT22;42408;53.238;5.686;2023-06-19T02:23:13;21.30;99.90
56512;DHT22;42408;53.238;5.686;2023-06-19T02:25:39;21.40;99.90
56512;DHT22;42408;53.238;5.686;2023-06-19T02:28:04;21.40;99.90
56512;DHT22;42408;53.238;5.686;2023-06-19T02:30:30;21.40;99.90
56512;DHT22;42408;53.238;5.686;2023-06-19T02:32:55;21.50;99.90
56512;DHT22;42408;53.238;5.686;2023-06-19T02:35:21;21.50;99.90
56512;DHT22;42408;53.238;5.686;2023-06-19T02:37:47;21.50;99.90
56512;DHT22;42408;53.238;5.686;2023-06-19T02:40:13;21.50;99.90
56512;DHT22;42408;53.238;5.686;2023-06-19T02:42:39;21.40;99.90
56512;DHT22;42408;53.238;5.686;2023-06-19T02:45:05;21.40;99.90
56512;DHT22;42408;53.238;5.686;2023-06-19T02:47:31;21.50;99.90
56512;DHT22;42408;53.238;5.686;2023-06-19T02:50:00;21.40;99.90
56512;DHT22;42408;53.238;5.686;2023-06-19T02:52:27;21.50;99.90
56512;DHT22;42408;53.238;5.686;2023-06-19T02:54:53;21.40;99.90
56512;DHT22;42408;53.238;5.686;2023-06-19T02:57:18;21.50;99.90
56512;DHT22;42408;53.238;5.686;2023-06-19T02:59:44;21.40;99.90
56512;DHT22;42408;53.238;5.686;2023-06-19T03:02:11;21.40;99.90
56512;DHT22;42408;53.238;5.686;2023-06-19T03:04:36;21.40;99.90
56512;DHT22;42408;53.238;5.686;2023-06-19T03:07:02;21.30;99.90
56512;DHT22;42408;53.238;5.686;2023-06-19T03:09:28;21.30;99.90
56512;DHT22;42408;53.238;5.686;2023-06-19T03:11:53;21.20;99.90
56512;DHT22;42408;53.238;5.686;2023-06-19T03:14:20;21.10;99.90
56512;DHT22;42408;53.238;5.686;2023-06-19T03:16:45;21.00;99.90
56512;DHT22;42408;53.238;5.686;2023-06-19T03:19:11;21.00;99.90
56512;DHT22;42408;53.238;5.686;2023-06-19T03:21:36;20.80;99.90
56512;DHT22;42408;53.238;5.686;2023-06-19T03:24:02;20.80;99.90
56512;DHT22;42408;53.238;5.686;2023-06-19T03:26:28;20.80;99.90
56512;DHT22;42408;53.238;5.686;2023-06-19T03:28:53;20.80;99.90
56512;DHT22;42408;53.238;5.686;2023-06-19T03:31:19;20.70;99.90
56512;DHT22;42408;53.238;5.686;2023-06-19T03:33:44;20.70;99.90
56512;DHT22;42408;53.238;5.686;2023-06-19T03:36:10;20.60;99.90
56512;DHT22;42408;53.238;5.686;2023-06-19T03:38:36;20.60;99.90
56512;DHT22;42408;53.238;5.686;2023-06-19T03:41:01;20.60;99.90
56512;DHT22;42408;53.238;5.686;2023-06-19T03:43:27;20.60;99.90
56512;DHT22;42408;53.238;5.686;2023-06-19T03:45:52;20.50;99.90
56512;DHT22;42408;53.238;5.686;2023-06-19T03:48:18;20.50;99.90
56512;DHT22;42408;53.238;5.686;2023-06-19T03:50:43;20.50;99.90
56512;DHT22;42408;53.238;5.686;2023-06-19T03:53:09;20.60;99.90
56512;DHT22;42408;53.238;5.686;2023-06-19T03:55:34;20.60;99.90
56512;DHT22;42408;53.238;5.686;2023-06-19T03:58:00;20.60;99.90
56512;DHT22;42408;53.238;5.686;2023-06-19T04:00:26;20.50;99.90
56512;DHT22;42408;53.238;5.686;2023-06-19T04:02:51;20.50;99.90
56512;DHT22;42408;53.238;5.686;2023-06-19T04:05:17;20.50;99.90
56512;DHT22;42408;53.238;5.686;2023-06-19T04:07:42;20.50;99.90
56512;DHT22;42408;53.238;5.686;2023-06-19T04:10:08;20.50;99.90
56512;DHT22;42408;53.238;5.686;2023-06-19T04:12:33;20.50;99.90
56512;DHT22;42408;53.238;5.686;2023-06-19T04:14:59;20.50;99.90
56512;DHT22;42408;53.238;5.686;2023-06-19T04:17:25;20.50;99.90
56512;DHT22;42408;53.238;5.686;2023-06-19T04:19:50;20.50;99.90
56512;DHT22;42408;53.238;5.686;2023-06-19T04:22:16;20.50;99.90
56512;DHT22;42408;53.238;5.686;2023-06-19T04:24:41;20.50;99.90
56512;DHT22;42408;53.238;5.686;2023-06-19T04:27:07;20.50;99.90
56512;DHT22;42408;53.238;5.686;2023-06-19T04:29:35;20.50;99.90
56512;DHT22;42408;53.238;5.686;2023-06-19T04:32:01;20.60;99.90
56512;DHT22;42408;53.238;5.686;2023-06-19T04:34:28;20.60;99.90
56512;DHT22;42408;53.238;5.686;2023-06-19T04:36:54;20.60;99.90
56512;DHT22;42408;53.238;5.686;2023-06-19T04:39:23;20.60;99.90
56512;DHT22;42408;53.238;5.686;2023-06-19T04:41:49;20.60;99.90
56512;DHT22;42408;53.238;5.686;2023-06-19T04:44:14;20.60;99.90
56512;DHT22;42408;53.238;5.686;2023-06-19T04:46:42;20.60;99.90
56512;DHT22;42408;53.238;5.686;2023-06-19T04:49:09;20.50;99.90
56512;DHT22;42408;53.238;5.686;2023-06-19T04:51:34;20.60;99.90
56512;DHT22;42408;53.238;5.686;2023-06-19T04:54:00;20.60;99.90
56512;DHT22;42408;53.238;5.686;2023-06-19T04:56:26;20.60;99.90
56512;DHT22;42408;53.238;5.686;2023-06-19T04:58:51;20.60;99.90
56512;DHT22;42408;53.238;5.686;2023-06-19T05:01:17;20.60;99.90
56512;DHT22;42408;53.238;5.686;2023-06-19T05:03:43;20.60;99.90
56512;DHT22;42408;53.238;5.686;2023-06-19T05:06:11;20.60;99.90
56512;DHT22;42408;53.238;5.686;2023-06-19T05:08:36;20.60;99.90
56512;DHT22;42408;53.238;5.686;2023-06-19T05:11:02;20.60;99.90
56512;DHT22;42408;53.238;5.686;2023-06-19T05:13:27;20.70;99.90
56512;DHT22;42408;53.238;5.686;2023-06-19T05:15:53;20.70;99.90
56512;DHT22;42408;53.238;5.686;2023-06-19T05:18:18;20.70;99.90
56512;DHT22;42408;53.238;5.686;2023-06-19T05:20:44;20.70;99.90
56512;DHT22;42408;53.238;5.686;2023-06-19T05:23:10;20.70;99.90
56512;DHT22;42408;53.238;5.686;2023-06-19T05:25:35;20.80;99.90
56512;DHT22;42408;53.238;5.686;2023-06-19T05:28:01;20.90;99.90
56512;DHT22;42408;53.238;5.686;2023-06-19T05:30:26;20.80;99.90
56512;DHT22;42408;53.238;5.686;2023-06-19T05:32:52;20.90;99.90
56512;DHT22;42408;53.238;5.686;2023-06-19T05:35:18;20.90;99.90
56512;DHT22;42408;53.238;5.686;2023-06-19T05:37:43;20.90;99.90
56512;DHT22;42408;53.238;5.686;2023-06-19T05:40:09;20.90;99.90
56512;DHT22;42408;53.238;5.686;2023-06-19T05:42:35;21.00;99.90
56512;DHT22;42408;53.238;5.686;2023-06-19T05:45:01;21.00;99.90
56512;DHT22;42408;53.238;5.686;2023-06-19T05:47:27;21.00;99.90
56512;DHT22;42408;53.238;5.686;2023-06-19T05:49:54;21.00;99.90
56512;DHT22;42408;53.238;5.686;2023-06-19T05:52:19;20.90;99.90
56512;DHT22;42408;53.238;5.686;2023-06-19T05:54:46;21.00;99.90
56512;DHT22;42408;53.238;5.686;2023-06-19T05:57:11;20.90;99.90
56512;DHT22;42408;53.238;5.686;2023-06-19T05:59:37;21.00;99.90
56512;DHT22;42408;53.238;5.686;2023-06-19T06:02:03;21.00;99.90
56512;DHT22;42408;53.238;5.686;2023-06-19T06:04:28;21.00;99.90
56512;DHT22;42408;53.238;5.686;2023-06-19T06:06:56;21.00;99.90
56512;DHT22;42408;53.238;5.686;2023-06-19T06:09:21;21.00;99.90
56512;DHT22;42408;53.238;5.686;2023-06-19T06:11:47;20.90;99.90
56512;DHT22;42408;53.238;5.686;2023-06-19T06:14:12;20.90;99.90
56512;DHT22;42408;53.238;5.686;2023-06-19T06:16:38;20.90;99.90
56512;DHT22;42408;53.238;5.686;2023-06-19T06:19:04;20.90;99.90
56512;DHT22;42408;53.238;5.686;2023-06-19T06:21:29;20.90;99.90
56512;DHT22;42408;53.238;5.686;2023-06-19T06:23:55;20.80;99.90
56512;DHT22;42408;53.238;5.686;2023-06-19T06:26:20;20.80;99.90
56512;DHT22;42408;53.238;5.686;2023-06-19T06:28:46;20.80;99.90
56512;DHT22;42408;53.238;5.686;2023-06-19T06:31:12;20.80;99.90
56512;DHT22;42408;53.238;5.686;2023-06-19T06:33:38;20.70;99.90
56512;DHT22;42408;53.238;5.686;2023-06-19T06:36:03;20.70;99.90
56512;DHT22;42408;53.238;5.686;2023-06-19T06:38:29;20.70;99.90
56512;DHT22;42408;53.238;5.686;2023-06-19T06:40:54;20.70;99.90
56512;DHT22;42408;53.238;5.686;2023-06-19T06:43:20;20.60;99.90
56512;DHT22;42408;53.238;5.686;2023-06-19T06:45:46;20.60;99.90
56512;DHT22;42408;53.238;5.686;2023-06-19T06:48:11;20.60;99.90
56512;DHT22;42408;53.238;5.686;2023-06-19T06:50:37;20.50;99.90
56512;DHT22;42408;53.238;5.686;2023-06-19T06:53:02;20.50;99.90
56512;DHT22;42408;53.238;5.686;2023-06-19T06:55:28;20.40;99.90
56512;DHT22;42408;53.238;5.686;2023-06-19T06:57:54;20.30;99.90
56512;DHT22;42408;53.238;5.686;2023-06-19T07:00:19;20.30;99.90
56512;DHT22;42408;53.238;5.686;2023-06-19T07:02:45;20.30;99.90
56512;DHT22;42408;53.238;5.686;2023-06-19T07:05:13;20.20;99.90
56512;DHT22;42408;53.238;5.686;2023-06-19T07:07:38;20.20;99.90
56512;DHT22;42408;53.238;5.686;2023-06-19T07:10:04;20.10;99.90
56512;DHT22;42408;53.238;5.686;2023-06-19T07:12:30;20.10;99.90
56512;DHT22;42408;53.238;5.686;2023-06-19T07:14:55;20.10;99.90
56512;DHT22;42408;53.238;5.686;2023-06-19T07:17:21;20.00;99.90
56512;DHT22;42408;53.238;5.686;2023-06-19T07:19:47;19.90;99.90
56512;DHT22;42408;53.238;5.686;2023-06-19T07:22:13;19.90;99.90
56512;DHT22;42408;53.238;5.686;2023-06-19T07:24:39;19.90;99.90
56512;DHT22;42408;53.238;5.686;2023-06-19T07:27:05;19.90;99.90
56512;DHT22;42408;53.238;5.686;2023-06-19T07:29:31;19.80;99.90
56512;DHT22;42408;53.238;5.686;2023-06-19T07:31:56;19.80;99.90
56512;DHT22;42408;53.238;5.686;2023-06-19T07:34:22;19.70;99.90
56512;DHT22;42408;53.238;5.686;2023-06-19T07:36:47;19.70;99.90
56512;DHT22;42408;53.238;5.686;2023-06-19T07:39:13;19.70;99.90
56512;DHT22;42408;53.238;5.686;2023-06-19T07:41:38;19.70;99.90
56512;DHT22;42408;53.238;5.686;2023-06-19T07:44:04;19.70;99.90
56512;DHT22;42408;53.238;5.686;2023-06-19T07:46:29;19.70;99.90
56512;DHT22;42408;53.238;5.686;2023-06-19T07:48:55;19.70;99.90
56512;DHT22;42408;53.238;5.686;2023-06-19T07:51:20;19.60;99.90
56512;DHT22;42408;53.238;5.686;2023-06-19T07:53:46;19.60;99.90
56512;DHT22;42408;53.238;5.686;2023-06-19T07:56:11;19.60;99.90
56512;DHT22;42408;53.238;5.686;2023-06-19T07:58:37;19.60;99.90
56512;DHT22;42408;53.238;5.686;2023-06-19T08:01:02;19.50;99.90
56512;DHT22;42408;53.238;5.686;2023-06-19T08:03:28;19.50;99.90
56512;DHT22;42408;53.238;5.686;2023-06-19T08:05:53;19.50;99.90
56512;DHT22;42408;53.238;5.686;2023-06-19T08:08:19;19.50;99.90
56512;DHT22;42408;53.238;5.686;2023-06-19T08:10:44;19.40;99.90
56512;DHT22;42408;53.238;5.686;2023-06-19T08:13:10;19.40;99.90
56512;DHT22;42408;53.238;5.686;2023-06-19T08:15:36;19.40;99.90
56512;DHT22;42408;53.238;5.686;2023-06-19T08:18:02;19.40;99.90
56512;DHT22;42408;53.238;5.686;2023-06-19T08:20:28;19.30;99.90
56512;DHT22;42408;53.238;5.686;2023-06-19T08:22:53;19.30;99.90
56512;DHT22;42408;53.238;5.686;2023-06-19T08:25:19;19.30;99.90
56512;DHT22;42408;53.238;5.686;2023-06-19T08:27:44;19.40;99.90
56512;DHT22;42408;53.238;5.686;2023-06-19T08:30:10;19.40;99.90
56512;DHT22;42408;53.238;5.686;2023-06-19T08:32:36;19.40;99.90
56512;DHT22;42408;53.238;5.686;2023-06-19T08:35:01;19.40;99.90
56512;DHT22;42408;53.238;5.686;2023-06-19T08:37:28;19.40;99.90
56512;DHT22;42408;53.238;5.686;2023-06-19T08:39:54;19.40;99.90
56512;DHT22;42408;53.238;5.686;2023-06-19T08:42:21;19.40;99.90
56512;DHT22;42408;53.238;5.686;2023-06-19T08:44:48;19.40;99.90
56512;DHT22;42408;53.238;5.686;2023-06-19T08:47:13;19.40;99.90
56512;DHT22;42408;53.238;5.686;2023-06-19T08:49:39;19.60;99.90
56512;DHT22;42408;53.238;5.686;2023-06-19T08:52:04;19.60;99.90
56512;DHT22;42408;53.238;5.686;2023-06-19T08:54:30;19.70;99.90
56512;DHT22;42408;53.238;5.686;2023-06-19T08:56:59;19.70;99.90
56512;DHT22;42408;53.238;5.686;2023-06-19T08:59:25;19.70;99.90
56512;DHT22;42408;53.238;5.686;2023-06-19T09:01:51;19.70;99.90
56512;DHT22;42408;53.238;5.686;2023-06-19T09:04:23;19.70;99.90
56512;DHT22;42408;53.238;5.686;2023-06-19T09:06:56;19.70;99.90
56512;DHT22;42408;53.238;5.686;2023-06-19T09:09:23;19.70;99.90
56512;DHT22;42408;53.238;5.686;2023-06-19T09:14:30;19.70;99.90
56512;DHT22;42408;53.238;5.686;2023-06-19T09:16:56;19.70;99.90
56512;DHT22;42408;53.238;5.686;2023-06-19T09:19:21;19.60;99.90
56512;DHT22;42408;53.238;5.686;2023-06-19T09:21:47;19.50;99.90
56512;DHT22;42408;53.238;5.686;2023-06-19T09:24:12;19.50;99.90
56512;DHT22;42408;53.238;5.686;2023-06-19T09:26:38;19.50;99.90
56512;DHT22;42408;53.238;5.686;2023-06-19T09:29:13;19.50;99.90
56512;DHT22;42408;53.238;5.686;2023-06-19T09:31:39;19.40;99.90
56512;DHT22;42408;53.238;5.686;2023-06-19T09:34:06;19.40;99.90
56512;DHT22;42408;53.238;5.686;2023-06-19T09:36:32;19.40;99.90
56512;DHT22;42408;53.238;5.686;2023-06-19T09:38:59;19.40;99.90
56512;DHT22;42408;53.238;5.686;2023-06-19T09:41:25;19.30;99.90
56512;DHT22;42408;53.238;5.686;2023-06-19T09:43:51;19.40;99.90
56512;DHT22;42408;53.238;5.686;2023-06-19T09:46:19;19.40;99.90
56512;DHT22;42408;53.238;5.686;2023-06-19T09:48:45;19.40;99.90
56512;DHT22;42408;53.238;5.686;2023-06-19T09:51:18;19.40;99.90
56512;DHT22;42408;53.238;5.686;2023-06-19T09:53:44;19.50;99.90
56512;DHT22;42408;53.238;5.686;2023-06-19T09:56:11;19.50;99.90
56512;DHT22;42408;53.238;5.686;2023-06-19T09:58:37;19.60;99.90
56512;DHT22;42408;53.238;5.686;2023-06-19T10:01:03;19.60;99.90
56512;DHT22;42408;53.238;5.686;2023-06-19T10:03:32;19.70;99.90
56512;DHT22;42408;53.238;5.686;2023-06-19T10:05:58;19.70;99.90
56512;DHT22;42408;53.238;5.686;2023-06-19T10:08:29;19.80;99.90
56512;DHT22;42408;53.238;5.686;2023-06-19T10:10:55;19.90;99.90
56512;DHT22;42408;53.238;5.686;2023-06-19T10:13:30;20.00;99.90
56512;DHT22;42408;53.238;5.686;2023-06-19T10:15:55;20.00;99.90
56512;DHT22;42408;53.238;5.686;2023-06-19T10:18:21;20.20;99.90
56512;DHT22;42408;53.238;5.686;2023-06-19T10:20:46;20.20;99.90
56512;DHT22;42408;53.238;5.686;2023-06-19T10:25:44;20.20;99.90
56512;DHT22;42408;53.238;5.686;2023-06-19T10:28:17;20.20;99.90
56512;DHT22;42408;53.238;5.686;2023-06-19T10:30:43;20.20;99.90
56512;DHT22;42408;53.238;5.686;2023-06-19T10:33:08;20.20;99.90
56512;DHT22;42408;53.238;5.686;2023-06-19T10:35:37;20.30;99.90
56512;DHT22;42408;53.238;5.686;2023-06-19T10:38:04;20.40;99.90
56512;DHT22;42408;53.238;5.686;2023-06-19T10:40:29;20.50;99.90
56512;DHT22;42408;53.238;5.686;2023-06-19T10:42:55;20.60;99.90
56512;DHT22;42408;53.238;5.686;2023-06-19T10:45:21;20.70;99.90
56512;DHT22;42408;53.238;5.686;2023-06-19T10:47:54;20.70;99.90
56512;DHT22;42408;53.238;5.686;2023-06-19T10:50:20;20.70;99.90
56512;DHT22;42408;53.238;5.686;2023-06-19T10:52:46;20.60;99.90
56512;DHT22;42408;53.238;5.686;2023-06-19T10:55:13;20.60;99.90
56512;DHT22;42408;53.238;5.686;2023-06-19T10:57:45;20.60;99.90
56512;DHT22;42408;53.238;5.686;2023-06-19T11:00:11;20.50;99.90
56512;DHT22;42408;53.238;5.686;2023-06-19T11:02:41;20.60;99.90
56512;DHT22;42408;53.238;5.686;2023-06-19T11:05:11;20.60;99.90
56512;DHT22;42408;53.238;5.686;2023-06-19T11:07:37;20.60;99.90
56512;DHT22;42408;53.238;5.686;2023-06-19T11:10:03;20.60;99.90
56512;DHT22;42408;53.238;5.686;2023-06-19T11:12:29;20.60;99.90
56512;DHT22;42408;53.238;5.686;2023-06-19T11:14:54;20.70;99.90
56512;DHT22;42408;53.238;5.686;2023-06-19T11:17:20;20.80;99.90
56512;DHT22;42408;53.238;5.686;2023-06-19T11:19:49;21.00;99.90
56512;DHT22;42408;53.238;5.686;2023-06-19T11:22:14;21.10;99.90
56512;DHT22;42408;53.238;5.686;2023-06-19T11:24:43;21.20;99.90
56512;DHT22;42408;53.238;5.686;2023-06-19T11:27:16;21.30;99.90
56512;DHT22;42408;53.238;5.686;2023-06-19T11:29:41;21.50;99.90
56512;DHT22;42408;53.238;5.686;2023-06-19T11:32:08;21.60;99.90
56512;DHT22;42408;53.238;5.686;2023-06-19T11:34:34;21.60;99.90
56512;DHT22;42408;53.238;5.686;2023-06-19T11:37:02;21.80;99.90
56512;DHT22;42408;53.238;5.686;2023-06-19T11:39:28;21.90;99.90
56512;DHT22;42408;53.238;5.686;2023-06-19T11:41:54;22.10;99.90
56512;DHT22;42408;53.238;5.686;2023-06-19T11:44:19;22.20;99.90
56512;DHT22;42408;53.238;5.686;2023-06-19T11:46:45;22.30;99.90
56512;DHT22;42408;53.238;5.686;2023-06-19T11:49:12;22.40;99.90
56512;DHT22;42408;53.238;5.686;2023-06-19T11:51:38;22.50;99.90
56512;DHT22;42408;53.238;5.686;2023-06-19T11:54:05;22.70;99.90
56512;DHT22;42408;53.238;5.686;2023-06-19T11:56:30;22.80;99.90
56512;DHT22;42408;53.238;5.686;2023-06-19T11:58:56;23.00;99.90
56512;DHT22;42408;53.238;5.686;2023-06-19T12:01:21;23.10;99.90
56512;DHT22;42408;53.238;5.686;2023-06-19T12:03:47;23.10;99.90
56512;DHT22;42408;53.238;5.686;2023-06-19T12:06:12;23.30;99.90
56512;DHT22;42408;53.238;5.686;2023-06-19T12:08:38;23.40;99.90
56512;DHT22;42408;53.238;5.686;2023-06-19T12:11:03;23.70;99.90
56512;DHT22;42408;53.238;5.686;2023-06-19T12:13:33;23.90;99.90
56512;DHT22;42408;53.238;5.686;2023-06-19T12:15:58;24.00;99.90
56512;DHT22;42408;53.238;5.686;2023-06-19T12:18:24;24.20;99.90
56512;DHT22;42408;53.238;5.686;2023-06-19T12:20:49;24.30;99.90
56512;DHT22;42408;53.238;5.686;2023-06-19T12:23:15;24.30;99.90
56512;DHT22;42408;53.238;5.686;2023-06-19T12:25:40;24.40;99.90
56512;DHT22;42408;53.238;5.686;2023-06-19T12:28:06;24.60;99.90
56512;DHT22;42408;53.238;5.686;2023-06-19T12:30:34;24.70;99.90
56512;DHT22;42408;53.238;5.686;2023-06-19T12:32:59;24.80;99.90
56512;DHT22;42408;53.238;5.686;2023-06-19T12:35:25;24.90;99.90
56512;DHT22;42408;53.238;5.686;2023-06-19T12:37:51;25.00;99.90
56512;DHT22;42408;53.238;5.686;2023-06-19T12:40:17;25.00;99.90
56512;DHT22;42408;53.238;5.686;2023-06-19T12:42:42;25.20;99.90
56512;DHT22;42408;53.238;5.686;2023-06-19T12:45:08;25.20;99.90
56512;DHT22;42408;53.238;5.686;2023-06-19T12:47:35;25.30;99.90
56512;DHT22;42408;53.238;5.686;2023-06-19T12:50:00;25.30;99.90
56512;DHT22;42408;53.238;5.686;2023-06-19T12:52:26;25.40;99.90
56512;DHT22;42408;53.238;5.686;2023-06-19T12:54:52;25.40;99.90
56512;DHT22;42408;53.238;5.686;2023-06-19T12:57:17;25.40;99.90
56512;DHT22;42408;53.238;5.686;2023-06-19T12:59:43;25.50;99.90
56512;DHT22;42408;53.238;5.686;2023-06-19T13:02:08;25.60;99.90
56512;DHT22;42408;53.238;5.686;2023-06-19T13:04:34;25.60;99.90
56512;DHT22;42408;53.238;5.686;2023-06-19T13:06:59;25.60;99.90
56512;DHT22;42408;53.238;5.686;2023-06-19T13:09:25;25.50;99.90
56512;DHT22;42408;53.238;5.686;2023-06-19T13:11:50;25.40;99.90
56512;DHT22;42408;53.238;5.686;2023-06-19T13:14:16;25.30;99.90
56512;DHT22;42408;53.238;5.686;2023-06-19T13:16:41;25.40;99.90
56512;DHT22;42408;53.238;5.686;2023-06-19T13:19:07;25.50;99.90
56512;DHT22;42408;53.238;5.686;2023-06-19T13:21:33;25.60;99.90
56512;DHT22;42408;53.238;5.686;2023-06-19T13:24:00;25.60;99.90
56512;DHT22;42408;53.238;5.686;2023-06-19T13:26:26;25.60;99.90
56512;DHT22;42408;53.238;5.686;2023-06-19T13:28:51;25.60;99.90
56512;DHT22;42408;53.238;5.686;2023-06-19T13:31:17;25.60;99.90
56512;DHT22;42408;53.238;5.686;2023-06-19T13:33:42;25.60;99.90
56512;DHT22;42408;53.238;5.686;2023-06-19T13:36:08;25.70;99.90
56512;DHT22;42408;53.238;5.686;2023-06-19T13:38:33;25.70;99.90
56512;DHT22;42408;53.238;5.686;2023-06-19T13:40:59;25.70;99.90
56512;DHT22;42408;53.238;5.686;2023-06-19T13:43:24;25.60;99.90
56512;DHT22;42408;53.238;5.686;2023-06-19T13:45:50;25.60;99.90
56512;DHT22;42408;53.238;5.686;2023-06-19T13:48:15;25.60;99.90
56512;DHT22;42408;53.238;5.686;2023-06-19T13:50:41;25.60;99.90
56512;DHT22;42408;53.238;5.686;2023-06-19T13:53:06;25.60;99.90
56512;DHT22;42408;53.238;5.686;2023-06-19T13:55:32;25.70;99.90
56512;DHT22;42408;53.238;5.686;2023-06-19T13:57:57;25.70;99.90
56512;DHT22;42408;53.238;5.686;2023-06-19T14:00:23;25.70;99.90
56512;DHT22;42408;53.238;5.686;2023-06-19T14:02:48;25.70;99.90
56512;DHT22;42408;53.238;5.686;2023-06-19T14:05:15;25.80;99.90
56512;DHT22;42408;53.238;5.686;2023-06-19T14:07:41;25.80;99.90
56512;DHT22;42408;53.238;5.686;2023-06-19T14:10:10;25.90;99.90
56512;DHT22;42408;53.238;5.686;2023-06-19T14:12:35;26.00;99.90
56512;DHT22;42408;53.238;5.686;2023-06-19T14:15:01;26.00;99.90
56512;DHT22;42408;53.238;5.686;2023-06-19T14:17:26;26.10;99.90
56512;DHT22;42408;53.238;5.686;2023-06-19T14:19:52;26.00;99.90
56512;DHT22;42408;53.238;5.686;2023-06-19T14:22:17;25.90;99.90
56512;DHT22;42408;53.238;5.686;2023-06-19T14:24:43;25.90;99.90
56512;DHT22;42408;53.238;5.686;2023-06-19T14:27:08;25.90;99.90
56512;DHT22;42408;53.238;5.686;2023-06-19T14:29:34;25.90;99.90
56512;DHT22;42408;53.238;5.686;2023-06-19T14:32:00;25.90;99.90
56512;DHT22;42408;53.238;5.686;2023-06-19T14:34:25;25.80;99.90
56512;DHT22;42408;53.238;5.686;2023-06-19T14:36:51;25.80;99.90
56512;DHT22;42408;53.238;5.686;2023-06-19T14:39:17;25.80;99.90
56512;DHT22;42408;53.238;5.686;2023-06-19T14:41:42;25.90;99.90
56512;DHT22;42408;53.238;5.686;2023-06-19T14:44:08;25.80;99.90
56512;DHT22;42408;53.238;5.686;2023-06-19T14:46:33;25.80;99.90
56512;DHT22;42408;53.238;5.686;2023-06-19T14:49:07;25.80;99.90
56512;DHT22;42408;53.238;5.686;2023-06-19T14:51:33;25.70;99.90
56512;DHT22;42408;53.238;5.686;2023-06-19T14:53:59;25.80;99.90
56512;DHT22;42408;53.238;5.686;2023-06-19T14:56:25;25.80;99.90
56512;DHT22;42408;53.238;5.686;2023-06-19T14:58:50;25.90;99.90
56512;DHT22;42408;53.238;5.686;2023-06-19T15:01:16;25.90;99.90
56512;DHT22;42408;53.238;5.686;2023-06-19T15:03:42;25.90;99.90
56512;DHT22;42408;53.238;5.686;2023-06-19T15:06:07;26.00;99.90
56512;DHT22;42408;53.238;5.686;2023-06-19T15:08:33;25.90;99.90
56512;DHT22;42408;53.238;5.686;2023-06-19T15:11:00;25.90;99.90
56512;DHT22;42408;53.238;5.686;2023-06-19T15:13:26;25.90;99.90
56512;DHT22;42408;53.238;5.686;2023-06-19T15:15:52;25.90;99.90
56512;DHT22;42408;53.238;5.686;2023-06-19T15:18:17;25.90;99.90
56512;DHT22;42408;53.238;5.686;2023-06-19T15:20:43;25.90;99.90
56512;DHT22;42408;53.238;5.686;2023-06-19T15:23:08;25.90;99.90
56512;DHT22;42408;53.238;5.686;2023-06-19T15:25:34;25.90;99.90
56512;DHT22;42408;53.238;5.686;2023-06-19T15:27:59;25.80;99.90
56512;DHT22;42408;53.238;5.686;2023-06-19T15:30:25;25.80;99.90